createdAt,value
2022-12-15T00:03:41.476Z,2.00
2022-12-15T00:08:42.490Z,2.00
2022-12-15T00:13:44.723Z,1.90
2022-12-15T00:18:45.504Z,1.90
2022-12-15T00:23:46.205Z,1.90
2022-12-15T00:28:48.601Z,1.80
2022-12-15T00:33:49.591Z,1.80
2022-12-15T00:38:43.636Z,1.80
2022-12-15T00:43:27.420Z,1.70
2022-12-15T00:48:12.508Z,1.80
2022-12-15T00:53:13.615Z,1.80
2022-12-15T00:58:14.350Z,1.80
2022-12-15T01:03:15.736Z,1.80
2022-12-15T01:08:19.637Z,1.80
2022-12-15T01:13:20.986Z,1.90
2022-12-15T01:18:22.170Z,1.90
2022-12-15T01:23:07.173Z,1.90
2022-12-15T01:27:51.304Z,1.90
2022-12-15T01:32:34.855Z,1.90
2022-12-15T01:37:18.709Z,1.90
2022-12-15T01:42:03.541Z,2.00
2022-12-15T01:46:48.421Z,2.00
2022-12-15T01:51:34.963Z,2.00
2022-12-15T01:56:20.737Z,2.00
2022-12-15T02:01:06.002Z,2.00
2022-12-15T02:05:49.452Z,2.00
2022-12-15T02:10:49.262Z,2.10
2022-12-15T02:15:39.833Z,2.00
2022-12-15T02:20:44.818Z,2.00
2022-12-15T02:26:02.476Z,2.00
2022-12-15T02:31:12.838Z,2.00
2022-12-15T02:36:01.857Z,2.00
2022-12-15T02:40:46.008Z,2.00
2022-12-15T02:45:36.082Z,2.00
2022-12-15T02:50:39.369Z,2.00
2022-12-15T02:55:34.088Z,1.90
2022-12-15T03:00:19.152Z,2.00
2022-12-15T03:05:03.083Z,2.10
2022-12-15T03:09:47.943Z,2.00
2022-12-15T03:14:31.751Z,2.00
2022-12-15T03:19:15.161Z,2.00
2022-12-15T03:23:59.131Z,2.00
2022-12-15T03:28:44.034Z,2.10
2022-12-15T03:33:27.725Z,2.00
2022-12-15T03:38:11.222Z,2.00
2022-12-15T03:42:54.652Z,2.00
2022-12-15T03:47:42.448Z,2.10
2022-12-15T03:52:25.846Z,2.10
2022-12-15T03:57:09.502Z,2.10
2022-12-15T04:01:52.984Z,2.00
2022-12-15T04:06:37.937Z,2.10
2022-12-15T04:11:21.443Z,2.10
2022-12-15T04:16:05.713Z,2.10
2022-12-15T04:20:50.243Z,2.10
2022-12-15T04:25:53.762Z,2.10
2022-12-15T04:30:55.126Z,2.10
2022-12-15T04:35:56.264Z,2.20
2022-12-15T04:40:58.554Z,2.20
2022-12-15T04:45:59.725Z,2.20
2022-12-15T04:51:00.760Z,2.20
2022-12-15T04:56:02.899Z,2.20
2022-12-15T05:01:03.611Z,2.10
2022-12-15T05:06:05.027Z,2.10
2022-12-15T05:11:07.532Z,2.10
2022-12-15T05:16:08.641Z,2.20
2022-12-15T05:21:09.775Z,2.20
2022-12-15T05:26:12.026Z,2.20
2022-12-15T05:31:12.924Z,2.30
2022-12-15T05:35:59.247Z,2.30
2022-12-15T05:40:42.759Z,2.30
2022-12-15T05:45:28.009Z,2.30
2022-12-15T05:50:11.834Z,2.30
2022-12-15T05:54:55.394Z,2.30
2022-12-15T05:59:39.422Z,2.40
2022-12-15T06:04:24.443Z,2.40
2022-12-15T06:09:08.097Z,2.40
2022-12-15T06:13:52.476Z,2.40
2022-12-15T06:18:37.858Z,2.60
2022-12-15T06:23:23.044Z,2.40
2022-12-15T06:28:06.582Z,2.40
2022-12-15T06:32:50.081Z,2.30
2022-12-15T06:37:33.477Z,2.30
2022-12-15T06:42:18.464Z,2.30
2022-12-15T06:47:01.989Z,2.30
2022-12-15T06:51:45.449Z,2.30
2022-12-15T06:56:34.035Z,2.30
2022-12-15T07:01:20.190Z,2.30
2022-12-15T07:06:05.522Z,2.30
2022-12-15T07:10:48.974Z,2.20
2022-12-15T07:15:33.167Z,2.30
2022-12-15T07:20:20.892Z,2.20
2022-12-15T07:25:09.026Z,2.20
2022-12-15T07:29:52.721Z,2.30
2022-12-15T07:34:36.431Z,2.30
2022-12-15T07:39:21.382Z,2.30
2022-12-15T07:44:04.892Z,2.40
2022-12-15T07:48:50.869Z,2.40
2022-12-15T07:53:35.077Z,2.30
2022-12-15T07:58:20.228Z,2.30
2022-12-15T08:03:04.150Z,2.30
2022-12-15T08:07:48.101Z,2.30
2022-12-15T08:12:32.766Z,2.30
2022-12-15T08:17:17.758Z,2.30
2022-12-15T08:22:01.255Z,2.40
2022-12-15T08:26:49.910Z,2.50
2022-12-15T08:31:35.220Z,2.50
2022-12-15T08:36:21.031Z,2.60
2022-12-15T08:41:10.137Z,2.60
2022-12-15T08:45:53.778Z,2.60
2022-12-15T08:50:37.355Z,2.70
2022-12-15T08:55:23.901Z,2.70
2022-12-15T09:00:08.509Z,2.80
2022-12-15T09:04:52.353Z,2.90
2022-12-15T09:09:35.942Z,2.90
2022-12-15T09:14:29.127Z,3.00
2022-12-15T09:19:12.892Z,3.10
2022-12-15T09:24:00.864Z,3.10
2022-12-15T09:28:45.226Z,3.20
2022-12-15T09:33:36.008Z,3.20
2022-12-15T09:38:20.204Z,3.20
2022-12-15T09:43:33.388Z,3.30
2022-12-15T09:48:12.557Z,3.30
2022-12-15T09:52:59.533Z,3.30
2022-12-15T09:57:49.972Z,3.30
2022-12-15T10:03:05.925Z,3.40
2022-12-15T10:07:51.412Z,3.40
2022-12-15T10:12:42.005Z,3.40
2022-12-15T10:17:42.501Z,3.50
2022-12-15T10:22:28.989Z,3.50
2022-12-15T10:27:36.452Z,3.50
2022-12-15T10:32:26.827Z,3.50
2022-12-15T10:37:18.248Z,3.50
2022-12-15T10:42:22.217Z,3.50
2022-12-15T10:47:11.663Z,3.60
2022-12-15T10:52:00.453Z,3.60
2022-12-15T10:56:50.455Z,3.60
2022-12-15T11:01:36.502Z,3.70
2022-12-15T11:06:22.920Z,3.70
2022-12-15T11:11:47.433Z,3.70
2022-12-15T11:16:33.954Z,3.70
2022-12-15T11:21:23.573Z,3.60
2022-12-15T11:26:21.354Z,3.70
2022-12-15T11:31:09.474Z,3.60
2022-12-15T11:36:09.904Z,3.50
2022-12-15T11:40:57.746Z,3.50
2022-12-15T11:45:53.176Z,3.50
2022-12-15T11:50:51.125Z,3.60
2022-12-15T11:55:44.516Z,3.60
2022-12-15T12:00:30.346Z,3.40
2022-12-15T12:05:53.213Z,3.50
2022-12-15T12:10:43.062Z,3.50
2022-12-15T12:15:32.754Z,3.50
2022-12-15T12:20:20.602Z,3.50
2022-12-15T12:25:11.959Z,3.50
2022-12-15T12:30:02.020Z,3.40
2022-12-15T12:35:31.635Z,3.40
2022-12-15T12:40:08.266Z,3.40
2022-12-15T12:44:51.731Z,3.30
2022-12-15T12:49:40.525Z,3.40
2022-12-15T12:54:47.882Z,3.40
2022-12-15T12:59:42.832Z,3.30
2022-12-15T13:04:41.835Z,3.30
2022-12-15T13:09:37.789Z,3.30
2022-12-15T13:14:26.462Z,3.40
2022-12-15T13:19:11.979Z,3.30
2022-12-15T13:24:03.016Z,3.40
2022-12-15T13:28:51.937Z,3.30
2022-12-15T13:33:45.339Z,3.30
2022-12-15T13:38:57.308Z,3.30
2022-12-15T13:43:47.332Z,3.30
2022-12-15T13:48:36.443Z,3.30
2022-12-15T13:53:23.700Z,3.30
2022-12-15T13:58:16.093Z,3.30
2022-12-15T14:03:08.211Z,3.20
2022-12-15T14:07:59.383Z,3.20
2022-12-15T14:12:43.053Z,3.20
2022-12-15T14:17:33.037Z,3.20
2022-12-15T14:22:28.966Z,3.20
2022-12-15T14:27:24.549Z,3.20
2022-12-15T14:32:10.305Z,3.10
2022-12-15T14:36:57.368Z,3.10
2022-12-15T14:41:48.817Z,3.10
2022-12-15T14:46:32.992Z,3.10
2022-12-15T14:51:16.612Z,3.10
2022-12-15T14:56:14.666Z,3.00
2022-12-15T15:00:59.105Z,3.00
2022-12-15T15:05:44.357Z,3.00
2022-12-15T15:10:32.032Z,3.00
2022-12-15T15:15:20.086Z,3.00
2022-12-15T15:20:05.959Z,2.90
2022-12-15T15:24:55.607Z,2.90
2022-12-15T15:29:41.266Z,2.90
2022-12-15T15:34:27.194Z,2.90
2022-12-15T15:39:16.356Z,2.90
2022-12-15T15:44:02.139Z,2.90
2022-12-15T15:48:48.844Z,2.80
2022-12-15T15:53:35.737Z,2.80
2022-12-15T15:58:19.324Z,2.80
2022-12-15T16:03:02.922Z,2.80
2022-12-15T16:07:49.296Z,2.80
2022-12-15T16:12:42.549Z,2.80
2022-12-15T16:17:26.074Z,2.80
2022-12-15T16:22:15.060Z,2.80
2022-12-15T16:27:01.577Z,2.80
2022-12-15T16:31:47.038Z,2.80
2022-12-15T16:36:30.830Z,2.80
2022-12-15T16:41:17.707Z,2.80
2022-12-15T16:46:01.778Z,2.80
2022-12-15T16:50:51.954Z,2.80
2022-12-15T16:55:47.433Z,2.80
2022-12-15T17:00:35.935Z,2.80
2022-12-15T17:05:22.084Z,2.80
2022-12-15T17:10:10.872Z,2.80
2022-12-15T17:14:54.431Z,2.80
2022-12-15T17:19:37.846Z,2.80
2022-12-15T17:24:24.183Z,2.70
2022-12-15T17:29:15.151Z,2.70
2022-12-15T17:33:59.947Z,2.60
2022-12-15T17:38:44.643Z,2.60
2022-12-15T17:43:35.416Z,2.60
2022-12-15T17:48:22.772Z,2.60
2022-12-15T17:53:07.800Z,2.50
2022-12-15T17:57:55.911Z,2.40
2022-12-15T18:02:41.605Z,2.40
2022-12-15T18:07:28.159Z,2.40
2022-12-15T18:12:19.828Z,2.40
2022-12-15T18:17:03.384Z,2.40
2022-12-15T18:21:47.419Z,2.40
2022-12-15T18:26:38.280Z,2.40
2022-12-15T18:31:26.111Z,2.40
2022-12-15T18:36:11.186Z,2.40
2022-12-15T18:41:01.928Z,2.40
2022-12-15T18:45:47.926Z,2.30
2022-12-15T18:50:31.976Z,2.40
2022-12-15T18:55:24.640Z,2.40
2022-12-15T19:00:20.409Z,2.30
2022-12-15T19:05:29.349Z,2.40
2022-12-15T19:10:16.214Z,2.40
2022-12-15T19:15:17.087Z,2.40
2022-12-15T19:20:19.058Z,2.30
2022-12-15T19:25:06.577Z,2.40
2022-12-15T19:29:58.346Z,2.40
2022-12-15T19:34:43.067Z,2.30
2022-12-15T19:39:28.300Z,2.40
2022-12-15T19:44:19.177Z,2.30
2022-12-15T19:49:06.848Z,2.30
2022-12-15T19:53:53.003Z,2.30
2022-12-15T19:58:39.697Z,2.30
2022-12-15T20:03:27.063Z,2.30
2022-12-15T20:08:15.030Z,2.40
2022-12-15T20:13:01.019Z,2.40
2022-12-15T20:17:46.601Z,2.30
2022-12-15T20:22:32.055Z,2.30
2022-12-15T20:27:19.829Z,2.20
2022-12-15T20:32:06.367Z,2.30
2022-12-15T20:36:51.793Z,2.20
2022-12-15T20:41:38.495Z,2.20
2022-12-15T20:46:24.778Z,2.10
2022-12-15T20:51:10.717Z,2.10
2022-12-15T20:55:57.572Z,2.10
2022-12-15T21:00:43.764Z,2.10
2022-12-15T21:05:27.582Z,2.10
2022-12-15T21:10:13.910Z,2.10
2022-12-15T21:14:58.785Z,2.00
2022-12-15T21:19:44.462Z,2.00
2022-12-15T21:24:30.109Z,2.10
2022-12-15T21:29:16.319Z,2.00
2022-12-15T21:34:01.013Z,2.00
2022-12-15T21:38:48.433Z,2.00
2022-12-15T21:43:34.172Z,2.00
2022-12-15T21:48:35.195Z,2.00
2022-12-15T21:53:19.246Z,2.00
2022-12-15T21:58:04.203Z,2.10
2022-12-15T22:02:49.062Z,4.40
2022-12-15T22:07:33.867Z,3.20
2022-12-15T22:12:21.540Z,2.60
2022-12-15T22:17:16.418Z,2.40
2022-12-15T22:21:59.867Z,2.20
2022-12-15T22:26:43.738Z,2.10
2022-12-15T22:31:27.887Z,2.10
2022-12-15T22:36:12.978Z,2.00
2022-12-15T22:41:00.095Z,2.00
2022-12-15T22:45:43.750Z,1.90
2022-12-15T22:50:28.173Z,1.90
2022-12-15T22:55:15.153Z,1.90
2022-12-15T23:00:04.297Z,1.90
2022-12-15T23:04:47.874Z,1.90
2022-12-15T23:09:31.553Z,1.90
2022-12-15T23:14:18.480Z,1.80
2022-12-15T23:19:03.038Z,1.80
2022-12-15T23:23:46.883Z,2.00
2022-12-15T23:28:30.905Z,1.80
2022-12-15T23:33:15.810Z,1.80
2022-12-15T23:37:59.761Z,1.80
2022-12-15T23:42:43.217Z,1.80
2022-12-15T23:47:26.695Z,1.70
2022-12-15T23:52:12.165Z,1.70
2022-12-15T23:56:55.616Z,1.70
